Time;durP1;ratioP1;P1;durP2;ratioP2;P2;SDS_P1;SDS_P2;PMS_P1;PMS_P2;Temp;Humidity;BMP_temperature;BMP_pressure;BME280_temperature;BME280_humidity;BME280_pressure;Samples;Min_cycle;Max_cycle;Signal;HPM_P1;HPM_P2
2022/09/20 00:02:18;;;;;;;0.00;0.00;;;9.80;99.90;;;;;;5070919;28;20040;-81
2022/09/20 00:04:46;;;;;;;0.00;0.00;;;9.80;99.90;;;;;;5070951;28;20049;-81
2022/09/20 00:07:12;;;;;;;0.00;0.00;;;9.90;99.90;;;;;;5087843;28;20048;-81
2022/09/20 00:09:39;;;;;;;0.00;0.00;;;9.70;99.90;;;;;;5086671;28;20049;-81
2022/09/20 00:12:05;;;;;;;0.00;0.00;;;9.70;99.90;;;;;;5070761;28;20044;-81
2022/09/20 00:14:31;;;;;;;0.00;0.00;;;9.60;99.90;;;;;;5087550;28;20401;-81
2022/09/20 00:16:57;;;;;;;0.00;0.00;;;9.50;99.90;;;;;;5070600;28;20053;-81
2022/09/20 00:19:23;;;;;;;0.00;0.00;;;9.70;99.90;;;;;;5070669;28;20049;-80
2022/09/20 00:21:48;;;;;;;0.00;0.00;;;9.50;99.90;;;;;;5070258;28;20056;-81
2022/09/20 00:24:14;;;;;;;0.00;0.00;;;9.60;99.90;;;;;;5087417;28;20523;-81
2022/09/20 00:26:40;;;;;;;0.00;0.00;;;9.30;99.90;;;;;;5070770;28;20051;-81
2022/09/20 00:29:06;;;;;;;0.00;0.00;;;9.50;99.90;;;;;;5087237;28;20128;-81
2022/09/20 00:31:32;;;;;;;0.00;0.00;;;9.50;99.90;;;;;;5070054;28;20048;-80
2022/09/20 00:36:43;;;;;;;0.00;0.00;;;9.30;99.90;;;;;;5087519;28;20091;-81
2022/09/20 00:39:11;;;;;;;0.08;0.08;;;9.40;99.90;;;;;;5087195;28;20053;-80
2022/09/20 00:41:37;;;;;;;0.10;0.00;;;9.10;99.90;;;;;;5069865;28;20151;-80
2022/09/20 00:44:42;;;;;;;0.00;0.00;;;9.10;99.90;;;;;;5087005;28;20037;-80
2022/09/20 00:47:37;;;;;;;0.00;0.00;;;9.10;99.90;;;;;;5053459;28;20048;-81
2022/09/20 00:50:34;;;;;;;0.00;0.00;;;9.00;99.90;;;;;;5070056;28;20056;-81
2022/09/20 00:53:17;;;;;;;0.08;0.08;;;9.00;99.90;;;;;;5052431;28;20424;-81
2022/09/20 00:55:52;;;;;;;0.00;0.00;;;8.90;99.90;;;;;;5035498;28;20053;-81
2022/09/20 00:58:19;;;;;;;0.00;0.00;;;8.90;99.90;;;;;;5018897;28;20053;-80
2022/09/20 01:00:47;;;;;;;0.00;0.00;;;8.90;99.90;;;;;;5018762;28;20045;-80
2022/09/20 01:03:16;;;;;;;0.00;0.00;;;8.90;99.90;;;;;;5036083;28;20138;-81
2022/09/20 01:05:43;;;;;;;0.00;0.00;;;8.90;99.90;;;;;;5019044;28;20111;-81
2022/09/20 01:08:09;;;;;;;0.00;0.00;;;8.90;99.90;;;;;;5035477;28;20045;-81
2022/09/20 01:10:36;;;;;;;0.00;0.00;;;8.80;99.90;;;;;;5035465;28;20065;-81
2022/09/20 01:13:02;;;;;;;0.00;0.00;;;8.80;99.90;;;;;;5035137;28;20397;-81
2022/09/20 01:15:30;;;;;;;0.00;0.00;;;8.80;99.90;;;;;;5052464;28;20555;-81
2022/09/20 01:17:58;;;;;;;0.05;0.05;;;8.80;99.90;;;;;;5035042;28;20492;-81
2022/09/20 01:20:30;;;;;;;0.00;0.00;;;8.70;99.90;;;;;;5018471;28;20041;-81
2022/09/20 01:23:14;;;;;;;0.00;0.00;;;8.70;99.90;;;;;;5018879;28;20053;-80
2022/09/20 01:26:04;;;;;;;0.00;0.00;;;8.70;99.90;;;;;;5018734;28;20531;-81
2022/09/20 01:28:31;;;;;;;0.00;0.00;;;8.70;99.90;;;;;;5018715;28;20146;-81
2022/09/20 01:31:30;;;;;;;0.00;0.00;;;8.60;99.90;;;;;;5068042;28;20052;-80
2022/09/20 01:34:00;;;;;;;0.00;0.00;;;8.60;99.90;;;;;;5086147;28;20040;-81
2022/09/20 01:36:49;;;;;;;0.00;0.00;;;8.60;99.90;;;;;;5086302;28;20488;-81
2022/09/20 01:39:44;;;;;;;0.00;0.00;;;8.60;99.90;;;;;;5086221;28;20048;-80
2022/09/20 01:42:13;;;;;;;0.00;0.00;;;8.60;99.90;;;;;;5069385;28;20435;-81
2022/09/20 01:44:52;;;;;;;0.00;0.00;;;8.80;99.90;;;;;;5069734;28;20481;-81
2022/09/20 01:47:43;;;;;;;0.00;0.00;;;8.60;99.90;;;;;;5086665;28;20041;-81
2022/09/20 01:50:36;;;;;;;0.00;0.00;;;8.50;99.90;;;;;;5069149;28;20052;-81
2022/09/20 01:53:27;;;;;;;0.00;0.00;;;8.50;99.90;;;;;;5086886;28;20049;-81
2022/09/20 01:56:01;;;;;;;0.00;0.00;;;8.50;99.90;;;;;;5086200;28;20131;-81
2022/09/20 01:58:57;;;;;;;0.00;0.00;;;8.50;99.90;;;;;;5068911;28;20052;-81
2022/09/20 02:01:32;;;;;;;0.00;0.00;;;8.50;99.90;;;;;;5068657;28;20045;-80
2022/09/20 02:04:16;;;;;;;;;;;8.50;99.90;;;;;;5069534;28;20049;-81
2022/09/20 02:06:45;;;;;;;0.00;0.00;;;8.50;99.90;;;;;;5069094;28;19932;-81
2022/09/20 02:09:38;;;;;;;0.00;0.00;;;8.40;99.90;;;;;;5086001;28;20041;-81
2022/09/20 02:12:42;;;;;;;0.00;0.00;;;8.40;99.90;;;;;;5069242;28;20413;-80
2022/09/20 02:15:29;;;;;;;0.00;0.00;;;8.40;99.90;;;;;;5085833;28;20087;-81
2022/09/20 02:18:28;;;;;;;0.00;0.00;;;8.60;99.90;;;;;;5068859;28;20052;-81
2022/09/20 02:21:04;;;;;;;0.00;0.00;;;8.40;99.90;;;;;;5086077;28;20040;-81
2022/09/20 02:24:11;;;;;;;0.00;0.00;;;8.40;99.90;;;;;;5068994;28;20044;-81
2022/09/20 02:27:14;;;;;;;0.00;0.00;;;8.30;99.90;;;;;;5051927;28;20140;-81
2022/09/20 02:29:43;;;;;;;0.00;0.00;;;8.30;99.90;;;;;;5085052;28;20064;-81
2022/09/20 02:32:32;;;;;;;0.00;0.00;;;8.40;99.90;;;;;;5083626;28;20037;-81
2022/09/20 02:35:23;;;;;;;0.00;0.00;;;8.30;99.90;;;;;;5072336;28;20511;-81
2022/09/20 02:38:11;;;;;;;0.00;0.00;;;8.30;99.90;;;;;;5072913;28;20132;-81
2022/09/20 02:41:03;;;;;;;0.00;0.00;;;8.30;99.90;;;;;;5037889;28;20053;-81
2022/09/20 02:43:57;;;;;;;0.00;0.00;;;8.40;99.90;;;;;;5021866;28;20458;-81
2022/09/20 02:46:49;;;;;;;0.00;0.00;;;8.30;99.90;;;;;;5021698;28;20110;-81
2022/09/20 02:49:48;;;;;;;0.05;0.00;;;8.30;99.90;;;;;;5038205;28;20056;-81
2022/09/20 02:52:25;;;;;;;0.00;0.00;;;8.40;99.90;;;;;;5021361;28;20061;-81
2022/09/20 02:55:04;;;;;;;0.00;0.00;;;8.40;99.90;;;;;;5021561;28;20084;-81
2022/09/20 02:57:39;;;;;;;0.00;0.00;;;8.40;99.90;;;;;;5038167;28;20049;-81
2022/09/20 03:00:11;;;;;;;0.00;0.00;;;8.30;99.90;;;;;;5021795;28;20140;-81
2022/09/20 03:03:28;;;;;;;7.47;1.65;;;8.30;99.90;;;;;;5021578;28;20053;-81
2022/09/20 03:06:36;;;;;;;0.00;0.00;;;8.30;99.90;;;;;;4975734;28;20445;-81
2022/09/20 03:09:28;;;;;;;0.00;0.00;;;8.30;99.90;;;;;;4921226;29;20055;-81
2022/09/20 03:12:27;;;;;;;0.00;0.00;;;8.20;99.90;;;;;;4921290;29;20066;-81
2022/09/20 03:15:20;;;;;;;0.00;0.00;;;8.20;99.90;;;;;;4921346;29;20055;-81
2022/09/20 03:17:58;;;;;;;0.00;0.00;;;8.30;99.90;;;;;;4926170;29;20599;-81
2022/09/20 03:20:33;;;;;;;0.00;0.00;;;8.10;99.90;;;;;;4933753;29;20440;-81
2022/09/20 03:23:31;;;;;;;0.00;0.00;;;8.10;99.90;;;;;;4918098;29;20103;-81
2022/09/20 03:26:07;;;;;;;0.00;0.00;;;8.10;99.90;;;;;;4918658;29;20433;-81
2022/09/20 03:29:03;;;;;;;0.00;0.00;;;8.00;99.90;;;;;;4917860;29;20056;-81
2022/09/20 03:31:59;;;;;;;0.63;0.40;;;8.00;99.90;;;;;;4917838;29;20060;-81
2022/09/20 03:34:57;;;;;;;0.00;0.00;;;8.00;99.90;;;;;;4920892;29;20062;-81
2022/09/20 03:37:35;;;;;;;0.00;0.00;;;7.90;99.90;;;;;;4905231;29;20056;-81
2022/09/20 03:40:19;;;;;;;0.47;0.43;;;7.90;99.90;;;;;;4937590;28;20052;-81
2022/09/20 03:42:50;;;;;;;0.00;0.00;;;7.90;99.90;;;;;;4962159;28;20391;-81
2022/09/20 03:45:34;;;;;;;0.00;0.00;;;7.90;99.90;;;;;;5006543;28;20513;-81
2022/09/20 03:48:07;;;;;;;0.00;0.00;;;7.90;99.90;;;;;;5036888;28;20449;-81
2022/09/20 03:51:10;;;;;;;0.00;0.00;;;7.90;99.90;;;;;;5037081;28;20041;-81
2022/09/20 03:54:17;;;;;;;0.00;0.00;;;7.90;99.90;;;;;;5037436;28;20053;-80
2022/09/20 03:57:03;;;;;;;0.00;0.00;;;7.90;99.90;;;;;;5020506;28;20056;-81
2022/09/20 03:59:42;;;;;;;0.00;0.00;;;8.00;99.90;;;;;;5036617;28;20536;-81
2022/09/20 04:02:30;;;;;;;0.00;0.00;;;7.90;99.90;;;;;;5036587;28;20135;-81
2022/09/20 04:05:11;;;;;;;0.00;0.00;;;7.90;99.90;;;;;;5020196;28;20057;-81
2022/09/20 04:08:05;;;;;;;0.00;0.00;;;7.90;99.90;;;;;;5036825;28;20089;-81
2022/09/20 04:10:36;;;;;;;0.00;0.00;;;7.90;99.90;;;;;;5037113;28;20049;-81
2022/09/20 04:13:19;;;;;;;0.00;0.00;;;7.90;99.90;;;;;;5070862;28;20052;-81
2022/09/20 04:16:16;;;;;;;0.32;0.32;;;7.90;99.90;;;;;;5087528;28;20496;-81
2022/09/20 04:19:09;;;;;;;0.00;0.00;;;7.90;99.90;;;;;;5087365;28;20492;-81
2022/09/20 04:21:38;;;;;;;0.00;0.00;;;7.90;99.90;;;;;;5087304;28;20048;-81
2022/09/20 04:24:10;;;;;;;0.00;0.00;;;7.90;99.90;;;;;;5070746;28;20137;-81
2022/09/20 04:26:43;;;;;;;0.00;0.00;;;7.90;99.90;;;;;;5037317;28;20052;-81
2022/09/20 04:29:33;;;;;;;0.00;0.00;;;7.90;99.90;;;;;;5070646;28;20485;-81
2022/09/20 04:32:24;;;;;;;0.00;0.00;;;7.90;99.90;;;;;;5070631;28;20048;-81
2022/09/20 04:38:17;;;;;;;0.00;0.00;;;8.00;99.90;;;;;;5087396;28;20049;-80
2022/09/20 04:40:52;;;;;;;0.98;0.08;;;8.10;99.90;;;;;;5087326;28;20044;-81
2022/09/20 04:43:50;;;;;;;0.00;0.00;;;8.10;99.90;;;;;;5070326;28;20404;-81
2022/09/20 04:46:16;;;;;;;0.00;0.00;;;8.20;99.90;;;;;;5070441;28;20546;-81
2022/09/20 04:48:45;;;;;;;0.00;0.00;;;8.20;99.90;;;;;;5070304;28;20084;-81
2022/09/20 04:51:44;;;;;;;0.00;0.00;;;8.40;99.90;;;;;;5070343;28;20393;-81
2022/09/20 04:54:54;;;;;;;0.00;0.00;;;8.30;99.90;;;;;;5087002;28;20049;-81
2022/09/20 04:57:40;;;;;;;0.00;0.00;;;8.40;99.90;;;;;;5035008;28;20057;-81
2022/09/20 05:00:15;;;;;;;0.00;0.00;;;8.40;99.90;;;;;;5018863;28;20488;-81
2022/09/20 05:03:09;;;;;;;0.00;0.00;;;8.60;99.90;;;;;;5018715;28;20057;-81
2022/09/20 05:06:05;;;;;;;0.00;0.00;;;8.50;99.90;;;;;;5019390;28;20057;-81
2022/09/20 05:09:01;;;;;;;0.00;0.00;;;8.50;99.90;;;;;;5018138;28;20057;-81
2022/09/20 05:11:51;;;;;;;0.00;0.00;;;8.50;99.90;;;;;;5035493;28;20100;-81
2022/09/20 05:14:44;;;;;;;0.00;0.00;;;8.80;99.90;;;;;;5018956;28;20235;-81
2022/09/20 05:17:29;;;;;;;0.00;0.00;;;8.60;99.90;;;;;;5035343;28;20087;-81
2022/09/20 05:20:30;;;;;;;0.00;0.00;;;8.60;99.90;;;;;;5035426;28;20056;-81
2022/09/20 05:23:17;;;;;;;0.00;0.00;;;8.70;99.90;;;;;;4921889;29;20063;-81
2022/09/20 05:25:55;;;;;;;0.00;0.00;;;8.70;99.90;;;;;;4938256;29;20055;-81
2022/09/20 05:28:32;;;;;;;0.00;0.00;;;8.80;99.90;;;;;;4953911;29;20066;-81
2022/09/20 05:31:07;;;;;;;0.00;0.00;;;8.80;99.90;;;;;;4929970;28;20104;-81
2022/09/20 05:33:45;;;;;;;;;;;8.90;99.90;;;;;;4957402;28;20058;-81
2022/09/20 05:36:42;;;;;;;0.00;0.00;;;8.90;99.90;;;;;;4957504;28;20026;-81
2022/09/20 05:39:32;;;;;;;0.00;0.00;;;9.00;99.90;;;;;;4957183;28;20046;-81
2022/09/20 05:42:12;;;;;;;0.47;0.00;;;9.00;99.90;;;;;;4989366;28;20053;-80
2022/09/20 05:44:53;;;;;;;0.00;0.00;;;9.00;99.90;;;;;;4972916;28;20062;-81
2022/09/20 05:47:59;;;;;;;0.00;0.00;;;9.00;99.90;;;;;;4972561;28;20050;-81
2022/09/20 05:50:52;;;;;;;0.00;0.00;;;9.00;99.90;;;;;;4972702;28;20066;-84
2022/09/20 05:53:45;;;;;;;0.00;0.00;;;9.10;99.90;;;;;;4972806;28;20053;-81
2022/09/20 05:56:29;;;;;;;0.00;0.00;;;9.10;99.90;;;;;;4972823;28;20060;-81
2022/09/20 05:59:14;;;;;;;0.00;0.00;;;9.20;99.90;;;;;;5086766;28;20140;-81
2022/09/20 06:01:43;;;;;;;;;;;9.20;99.90;;;;;;5086259;28;20044;-81
2022/09/20 06:04:50;;;;;;;0.00;0.00;;;9.20;99.90;;;;;;5086011;28;19928;-81
2022/09/20 06:07:15;;;;;;;0.00;0.00;;;9.20;99.90;;;;;;5018725;28;20060;-80
2022/09/20 06:09:47;;;;;;;0.45;0.32;;;9.30;99.90;;;;;;5038990;28;20061;-81
2022/09/20 06:12:23;;;;;;;0.00;0.00;;;9.30;99.90;;;;;;5021955;28;20548;-81
2022/09/20 06:15:13;;;;;;;0.25;0.25;;;9.40;99.90;;;;;;5022363;28;20127;-81
2022/09/20 06:18:12;;;;;;;0.00;0.00;;;9.50;99.90;;;;;;5021797;28;20540;-81
2022/09/20 06:21:04;;;;;;;0.00;0.00;;;9.50;99.90;;;;;;5038641;28;20047;-80
2022/09/20 06:23:31;;;;;;;0.00;0.00;;;9.60;99.90;;;;;;5022157;28;20573;-80
2022/09/20 06:26:06;;;;;;;0.00;0.00;;;9.70;99.90;;;;;;5037733;28;20060;-80
2022/09/20 06:28:36;;;;;;;0.00;0.00;;;9.70;99.90;;;;;;5021230;28;20057;-80
2022/09/20 06:31:08;;;;;;;0.00;0.00;;;9.80;99.90;;;;;;5055082;28;20098;-80
2022/09/20 06:33:46;;;;;;;0.00;0.00;;;9.80;99.90;;;;;;5038636;28;20063;-80
2022/09/20 06:42:21;;;;;;;0.00;0.00;;;9.90;99.90;;;;;;4979741;28;20054;-80
2022/09/20 06:44:46;;;;;;;0.00;0.00;;;10.00;99.90;;;;;;4962669;28;20415;-80
2022/09/20 06:47:13;;;;;;;0.00;0.00;;;10.00;99.90;;;;;;4995798;28;20466;-80
2022/09/20 06:49:43;;;;;;;0.00;0.00;;;10.00;99.90;;;;;;4995546;28;20054;-82
2022/09/20 06:52:14;;;;;;;0.00;0.00;;;10.00;99.90;;;;;;5011450;28;20518;-81
2022/09/20 06:54:44;;;;;;;0.00;0.00;;;10.10;99.90;;;;;;4994848;28;20042;-81
2022/09/20 06:57:15;;;;;;;0.00;0.00;;;10.20;99.90;;;;;;4995487;28;20141;-81
2022/09/20 06:59:41;;;;;;;0.00;0.00;;;10.20;99.90;;;;;;4995303;28;20510;-81
2022/09/20 07:02:07;;;;;;;0.00;0.00;;;10.30;99.90;;;;;;4994879;28;20101;-81
2022/09/20 07:04:33;;;;;;;0.00;0.00;;;10.40;99.90;;;;;;4995127;28;20054;-81
2022/09/20 07:07:01;;;;;;;0.00;0.00;;;10.40;99.90;;;;;;4995235;28;20093;-81
2022/09/20 07:09:27;;;;;;;0.00;0.00;;;10.50;99.90;;;;;;4995106;28;20061;-81
2022/09/20 07:11:54;;;;;;;0.00;0.00;;;10.50;99.90;;;;;;4979480;28;20054;-81
2022/09/20 07:14:22;;;;;;;0.00;0.00;;;10.60;99.90;;;;;;5030096;28;20064;-81
2022/09/20 07:16:47;;;;;;;0.00;0.00;;;10.60;99.90;;;;;;5071849;28;20068;-81
2022/09/20 07:19:13;;;;;;;0.00;0.00;;;10.70;99.90;;;;;;5086453;28;20484;-82
2022/09/20 07:21:39;;;;;;;0.00;0.00;;;10.70;99.90;;;;;;5071075;28;20408;-81
2022/09/20 07:24:05;;;;;;;0.00;0.00;;;10.80;99.90;;;;;;5054906;28;20057;-82
2022/09/20 07:26:31;;;;;;;0.00;0.00;;;10.80;99.90;;;;;;5054867;28;20044;-82
2022/09/20 07:28:58;;;;;;;0.00;0.00;;;10.90;99.90;;;;;;5055218;28;20144;-82
2022/09/20 07:31:27;;;;;;;0.00;0.00;;;10.90;99.90;;;;;;5038355;28;20084;-82
2022/09/20 07:33:54;;;;;;;0.00;0.00;;;11.00;99.90;;;;;;5037443;28;20119;-82
2022/09/20 07:36:20;;;;;;;0.00;0.00;;;11.00;99.90;;;;;;5054574;28;20045;-81
2022/09/20 07:38:50;;;;;;;0.00;0.00;;;11.00;99.90;;;;;;5038202;28;20132;-81
2022/09/20 07:41:21;;;;;;;0.00;0.00;;;11.10;99.90;;;;;;5054817;28;20132;-81
2022/09/20 07:43:47;;;;;;;0.00;0.00;;;11.10;99.90;;;;;;5054946;28;20038;-81
2022/09/20 07:46:12;;;;;;;0.00;0.00;;;11.20;99.90;;;;;;5038203;28;20547;-81
2022/09/20 07:48:39;;;;;;;0.00;0.00;;;11.30;99.90;;;;;;5038059;28;20056;-81
2022/09/20 07:51:08;;;;;;;0.00;0.00;;;11.30;99.90;;;;;;5054642;28;20972;-82
2022/09/20 07:53:33;;;;;;;0.00;0.00;;;11.50;99.90;;;;;;5037973;28;20044;-81
2022/09/20 07:56:09;;;;;;;0.00;0.00;;;11.50;99.90;;;;;;5054541;28;20098;-81
2022/09/20 07:58:35;;;;;;;0.00;0.00;;;11.60;99.90;;;;;;5054085;28;20076;-81
2022/09/20 08:01:11;;;;;;;0.00;0.00;;;11.70;99.90;;;;;;5037802;28;20053;-81
2022/09/20 08:03:37;;;;;;;0.00;0.00;;;11.80;99.90;;;;;;5037714;28;20451;-81
2022/09/20 08:06:11;;;;;;;0.00;0.00;;;12.10;99.90;;;;;;5037778;28;20075;-82
2022/09/20 08:08:39;;;;;;;0.00;0.00;;;12.10;99.90;;;;;;5054479;28;20052;-82
2022/09/20 08:11:06;;;;;;;0.00;0.00;;;12.10;99.90;;;;;;5037720;28;20199;-82
2022/09/20 08:13:44;;;;;;;0.00;0.00;;;12.30;99.90;;;;;;5053946;28;20049;-82
2022/09/20 08:16:14;;;;;;;0.00;0.00;;;12.30;99.90;;;;;;5037410;28;20055;-81
2022/09/20 08:18:48;;;;;;;0.10;0.10;;;12.40;99.90;;;;;;5037481;28;20480;-82
2022/09/20 08:21:14;;;;;;;0.67;0.00;;;12.70;99.90;;;;;;5053844;28;20045;-82
2022/09/20 08:23:41;;;;;;;0.00;0.00;;;12.70;99.90;;;;;;5037365;28;20396;-82
2022/09/20 08:26:11;;;;;;;0.00;0.00;;;12.90;99.90;;;;;;5053620;28;20389;-82
2022/09/20 08:28:37;;;;;;;0.00;0.00;;;13.00;99.90;;;;;;5053951;28;20041;-82
2022/09/20 08:31:07;;;;;;;0.00;0.00;;;13.10;99.90;;;;;;5052916;28;20053;-82
2022/09/20 08:33:35;;;;;;;0.10;0.10;;;13.30;99.90;;;;;;5053679;28;20491;-82
2022/09/20 08:36:01;;;;;;;0.00;0.00;;;13.40;99.90;;;;;;5037078;28;20052;-82
2022/09/20 08:38:27;;;;;;;0.00;0.00;;;13.50;99.90;;;;;;5037061;28;20049;-82
2022/09/20 08:41:02;;;;;;;0.00;0.00;;;13.60;99.90;;;;;;5036824;28;20397;-82
2022/09/20 08:43:35;;;;;;;0.00;0.00;;;13.60;99.90;;;;;;5037489;28;20117;-82
2022/09/20 08:46:03;;;;;;;0.00;0.00;;;13.70;99.90;;;;;;5053828;28;20044;-82
2022/09/20 08:48:32;;;;;;;0.00;0.00;;;13.70;99.90;;;;;;5037002;28;20061;-82
2022/09/20 08:51:03;;;;;;;0.00;0.00;;;13.80;99.90;;;;;;5053492;28;20052;-82
2022/09/20 08:53:29;;;;;;;0.00;0.00;;;13.80;99.90;;;;;;5036829;28;20064;-82
2022/09/20 08:55:59;;;;;;;0.00;0.00;;;13.90;99.90;;;;;;5036520;28;20563;-82
2022/09/20 08:58:26;;;;;;;0.00;0.00;;;14.00;99.90;;;;;;5036177;28;20053;-82
2022/09/20 09:00:53;;;;;;;0.57;0.38;;;14.20;99.90;;;;;;5053059;28;20477;-82
2022/09/20 09:03:18;;;;;;;0.00;0.00;;;14.20;99.90;;;;;;5036456;28;20051;-82
2022/09/20 09:05:47;;;;;;;0.00;0.00;;;14.30;99.90;;;;;;5053311;28;20041;-81
2022/09/20 09:08:18;;;;;;;0.00;0.00;;;14.30;99.90;;;;;;5036486;28;20048;-82
2022/09/20 09:10:53;;;;;;;0.00;0.00;;;14.30;99.90;;;;;;5036811;28;20045;-82
2022/09/20 09:13:39;;;;;;;;;;;14.40;99.90;;;;;;5053665;28;20041;-81
2022/09/20 09:16:16;;;;;;;0.00;0.00;;;14.40;99.90;;;;;;5015505;28;19925;-81
2022/09/20 09:18:44;;;;;;;0.00;0.00;;;14.60;99.90;;;;;;4999335;28;20144;-81
2022/09/20 09:21:17;;;;;;;0.00;0.00;;;14.70;99.90;;;;;;5015317;28;20052;-82
2022/09/20 09:24:05;;;;;;;0.00;0.00;;;14.80;99.90;;;;;;5048686;28;20041;-81
2022/09/20 09:26:39;;;;;;;0.00;0.00;;;14.80;99.90;;;;;;4998771;28;20053;-82
2022/09/20 09:29:09;;;;;;;0.00;0.00;;;14.90;99.90;;;;;;5015448;28;20042;-81
2022/09/20 09:31:36;;;;;;;0.00;0.00;;;15.10;99.90;;;;;;4999126;28;20103;-81
2022/09/20 09:34:01;;;;;;;0.00;0.00;;;15.30;99.90;;;;;;5015471;28;20064;-81
2022/09/20 09:36:27;;;;;;;0.00;0.00;;;15.40;99.90;;;;;;5015645;28;20037;-81
2022/09/20 09:39:15;;;;;;;0.00;0.00;;;15.60;99.90;;;;;;5015382;28;20049;-81
2022/09/20 09:41:42;;;;;;;0.00;0.00;;;15.70;99.90;;;;;;4998337;28;20049;-82
2022/09/20 09:44:24;;;;;;;0.00;0.00;;;15.80;99.90;;;;;;4999418;28;20045;-81
2022/09/20 09:46:52;;;;;;;0.00;0.00;;;15.90;99.90;;;;;;4999108;28;20069;-81
2022/09/20 09:49:23;;;;;;;0.08;0.08;;;15.90;99.90;;;;;;4998946;28;20050;-81
2022/09/20 09:52:11;;;;;;;0.00;0.00;;;15.90;99.90;;;;;;4998793;28;20049;-81
2022/09/20 09:54:49;;;;;;;0.00;0.00;;;16.10;99.90;;;;;;5035778;28;20072;-81
2022/09/20 09:57:39;;;;;;;0.00;0.00;;;16.10;99.90;;;;;;5035819;28;20061;-82
2022/09/20 10:00:12;;;;;;;0.10;0.10;;;16.30;99.90;;;;;;5035799;28;20071;-81
2022/09/20 10:03:08;;;;;;;0.45;0.17;;;16.40;99.90;;;;;;5036040;28;20103;-82
2022/09/20 10:05:57;;;;;;;0.00;0.00;;;16.60;99.90;;;;;;5052548;28;20094;-82
2022/09/20 10:08:38;;;;;;;0.00;0.00;;;16.90;99.90;;;;;;5035798;28;20190;-82
2022/09/20 10:11:25;;;;;;;0.00;0.00;;;16.90;99.90;;;;;;5036447;28;20052;-82
2022/09/20 10:14:35;;;;;;;0.00;0.00;;;17.00;99.90;;;;;;5036010;28;20045;-82
2022/09/20 10:17:19;;;;;;;0.00;0.00;;;17.00;99.90;;;;;;5035843;28;20151;-82
2022/09/20 10:20:06;;;;;;;0.83;0.13;;;17.10;99.90;;;;;;5051996;28;20405;-82
2022/09/20 10:22:49;;;;;;;0.00;0.00;;;17.40;99.90;;;;;;5052803;28;20624;-82
2022/09/20 10:25:40;;;;;;;0.00;0.00;;;17.50;99.90;;;;;;5052243;28;20053;-82
2022/09/20 10:28:21;;;;;;;0.00;0.00;;;18.10;99.90;;;;;;5035896;28;20048;-82
2022/09/20 10:31:20;;;;;;;0.00;0.00;;;18.10;99.90;;;;;;5035861;28;20041;-82
2022/09/20 10:34:13;;;;;;;0.00;0.00;;;18.30;99.90;;;;;;5036344;28;20051;-82
2022/09/20 10:36:44;;;;;;;0.00;0.00;;;18.30;99.90;;;;;;5052026;28;20037;-82
2022/09/20 10:39:35;;;;;;;0.00;0.00;;;18.50;99.90;;;;;;5035393;28;20057;-82
2022/09/20 10:45:40;;;;;;;1.17;0.57;;;18.70;99.90;;;;;;5051425;28;20056;-82
2022/09/20 10:48:21;;;;;;;0.00;0.00;;;18.20;99.90;;;;;;5052013;28;20044;-83
2022/09/20 10:50:52;;;;;;;0.00;0.00;;;18.10;99.90;;;;;;5035617;28;20076;-83
2022/09/20 10:53:48;;;;;;;0.00;0.00;;;18.30;99.90;;;;;;5052197;28;20048;-83
2022/09/20 10:56:17;;;;;;;0.00;0.00;;;18.60;99.90;;;;;;5055691;28;20045;-83
2022/09/20 10:59:20;;;;;;;0.00;0.00;;;18.50;99.70;;;;;;5039945;28;20059;-83
2022/09/20 11:01:46;;;;;;;0.00;0.00;;;18.30;99.90;;;;;;5038596;28;20477;-83
2022/09/20 11:04:33;;;;;;;0.00;0.00;;;17.70;99.60;;;;;;5055227;28;20049;-83
2022/09/20 11:07:27;;;;;;;0.10;0.10;;;17.20;99.90;;;;;;5055894;28;20045;-83
2022/09/20 11:10:13;;;;;;;0.00;0.00;;;16.80;99.90;;;;;;5032957;28;20053;-82
2022/09/20 11:12:58;;;;;;;0.00;0.00;;;16.50;99.90;;;;;;5038872;28;20055;-82
2022/09/20 11:15:29;;;;;;;0.00;0.00;;;16.30;99.90;;;;;;5055647;28;20139;-82
2022/09/20 11:18:02;;;;;;;0.00;0.00;;;16.30;99.90;;;;;;5055718;28;20106;-82
2022/09/20 11:20:32;;;;;;;0.00;0.00;;;16.10;99.90;;;;;;5054961;28;20048;-82
2022/09/20 11:23:05;;;;;;;0.00;0.00;;;16.00;99.90;;;;;;5038301;28;20511;-82
2022/09/20 11:25:44;;;;;;;1.23;0.30;;;15.80;99.90;;;;;;5055006;28;20080;-83
2022/09/20 11:28:29;;;;;;;0.00;0.00;;;15.70;99.90;;;;;;5039110;28;20044;-82
2022/09/20 11:31:32;;;;;;;0.00;0.00;;;15.60;99.90;;;;;;5038694;28;20045;-83
2022/09/20 11:34:27;;;;;;;0.00;0.00;;;15.60;99.90;;;;;;5038281;28;20052;-82
2022/09/20 11:37:00;;;;;;;0.00;0.00;;;15.60;99.90;;;;;;5055088;28;20135;-84
2022/09/20 11:39:37;;;;;;;0.00;0.00;;;15.60;99.90;;;;;;5038060;28;20049;-84
2022/09/20 11:42:05;;;;;;;0.00;0.00;;;15.70;99.90;;;;;;5037879;28;20370;-81
2022/09/20 11:44:32;;;;;;;0.00;0.00;;;15.70;99.90;;;;;;5054939;28;20230;-82
2022/09/20 11:47:06;;;;;;;0.00;0.00;;;15.80;99.90;;;;;;5038078;28;20068;-82
2022/09/20 11:49:43;;;;;;;0.00;0.00;;;16.00;99.90;;;;;;5055137;28;20496;-82
2022/09/20 11:52:35;;;;;;;0.00;0.00;;;16.10;99.90;;;;;;5037995;28;20049;-82
2022/09/20 11:55:29;;;;;;;0.00;0.00;;;16.20;99.90;;;;;;5016998;28;20057;-82
2022/09/20 11:58:21;;;;;;;0.00;0.00;;;16.20;99.90;;;;;;5000481;28;20424;-81
2022/09/20 12:00:53;;;;;;;0.00;0.00;;;16.20;99.90;;;;;;5013208;28;20060;-82
2022/09/20 12:03:36;;;;;;;0.00;0.00;;;16.30;99.90;;;;;;5017031;28;20057;-81
2022/09/20 12:06:07;;;;;;;0.00;0.00;;;16.30;99.90;;;;;;5000919;28;20065;-81
2022/09/20 12:08:40;;;;;;;0.00;0.00;;;16.30;99.90;;;;;;5016924;28;20540;-81
2022/09/20 12:11:13;;;;;;;0.00;0.00;;;16.30;99.90;;;;;;5000566;28;20053;-81
2022/09/20 12:13:52;;;;;;;0.00;0.00;;;16.30;99.90;;;;;;5000634;28;20057;-81
2022/09/20 12:16:36;;;;;;;0.00;0.00;;;16.30;99.90;;;;;;5000468;28;20060;-81
2022/09/20 12:19:12;;;;;;;0.00;0.00;;;16.40;99.90;;;;;;5016938;28;20057;-80
2022/09/20 12:22:07;;;;;;;0.00;0.00;;;16.30;99.90;;;;;;5000156;28;20041;-81
2022/09/20 12:24:41;;;;;;;0.10;0.10;;;16.30;99.90;;;;;;5000273;28;20474;-81
2022/09/20 12:27:28;;;;;;;0.00;0.00;;;16.50;99.90;;;;;;5017017;28;20081;-81
2022/09/20 12:30:19;;;;;;;0.00;0.00;;;16.60;99.90;;;;;;5000268;28;20095;-80
2022/09/20 12:32:50;;;;;;;0.00;0.00;;;16.60;99.90;;;;;;5029503;28;20524;-80
2022/09/20 12:35:34;;;;;;;0.05;0.05;;;16.70;99.90;;;;;;5037186;28;20048;-80
2022/09/20 12:38:37;;;;;;;0.00;0.00;;;16.60;99.90;;;;;;5037170;28;20044;-80
2022/09/20 12:41:13;;;;;;;0.00;0.00;;;16.60;99.90;;;;;;4999889;28;20132;-80
2022/09/20 12:44:07;;;;;;;0.00;0.00;;;16.70;99.90;;;;;;5016571;28;20065;-80
2022/09/20 12:46:42;;;;;;;0.00;0.00;;;16.90;99.90;;;;;;4938625;29;20047;-80
2022/09/20 12:52:54;;;;;;;0.00;0.00;;;17.50;99.90;;;;;;4938533;29;19929;-80
2022/09/20 12:55:28;;;;;;;0.00;0.00;;;17.60;99.90;;;;;;4938357;29;20071;-81
2022/09/20 12:58:14;;;;;;;0.00;0.00;;;17.60;99.90;;;;;;4937877;29;20065;-81
2022/09/20 13:00:48;;;;;;;0.00;0.00;;;17.90;99.90;;;;;;4938355;29;20485;-81
2022/09/20 13:03:15;;;;;;;0.00;0.00;;;18.20;99.90;;;;;;4938338;29;20051;-80
2022/09/20 13:05:47;;;;;;;0.00;0.00;;;18.30;99.90;;;;;;4938481;29;20051;-81
2022/09/20 13:08:19;;;;;;;0.00;0.00;;;18.40;99.90;;;;;;4922578;29;20047;-80
2022/09/20 13:11:16;;;;;;;0.00;0.00;;;18.30;99.90;;;;;;4922530;29;20063;-80
2022/09/20 13:13:48;;;;;;;0.00;0.00;;;18.10;99.90;;;;;;4881533;29;20124;-80
2022/09/20 13:16:29;;;;;;;0.00;0.00;;;17.90;99.90;;;;;;4915256;29;20122;-80
2022/09/20 13:19:17;;;;;;;0.00;0.00;;;17.70;99.90;;;;;;4916035;29;20060;-81
2022/09/20 13:22:26;;;;;;;0.00;0.00;;;17.30;99.90;;;;;;4900082;29;20047;-81
2022/09/20 13:25:05;;;;;;;0.00;0.00;;;16.90;99.90;;;;;;4880870;29;20573;-81
2022/09/20 13:27:48;;;;;;;0.52;0.10;;;16.50;99.90;;;;;;4881562;29;20540;-81
2022/09/20 13:30:16;;;;;;;0.00;0.00;;;16.20;99.90;;;;;;4881109;29;20063;-81
2022/09/20 13:32:43;;;;;;;0.00;0.00;;;16.00;99.90;;;;;;4880904;29;20068;-81
2022/09/20 13:35:08;;;;;;;0.00;0.00;;;15.80;99.90;;;;;;4881682;29;20410;-81
2022/09/20 13:37:37;;;;;;;0.00;0.00;;;15.70;99.90;;;;;;4880937;29;20133;-80
2022/09/20 13:40:04;;;;;;;0.00;0.00;;;15.70;99.90;;;;;;4881410;29;20056;-80
2022/09/20 13:42:33;;;;;;;0.00;0.00;;;15.70;99.90;;;;;;4881082;29;20079;-80
2022/09/20 13:44:59;;;;;;;0.00;0.00;;;15.70;99.90;;;;;;4896708;29;20056;-80
2022/09/20 13:47:28;;;;;;;0.00;0.00;;;15.80;99.90;;;;;;4881108;29;20088;-81
2022/09/20 13:50:16;;;;;;;0.00;0.00;;;15.90;99.90;;;;;;4885398;29;20075;-80
2022/09/20 13:52:56;;;;;;;0.00;0.00;;;15.90;99.90;;;;;;4884247;29;20052;-81
2022/09/20 13:55:37;;;;;;;0.00;0.00;;;16.00;99.90;;;;;;4899669;29;20064;-81
2022/09/20 13:58:33;;;;;;;0.00;0.00;;;16.00;99.90;;;;;;4899271;29;20066;-81
2022/09/20 14:01:02;;;;;;;0.00;0.00;;;16.10;99.90;;;;;;4914952;28;20051;-81
2022/09/20 14:03:29;;;;;;;0.00;0.00;;;16.20;99.90;;;;;;5065934;28;20049;-82
2022/09/20 14:06:25;;;;;;;0.00;0.00;;;16.30;99.90;;;;;;5028759;28;20516;-82
2022/09/20 14:08:51;;;;;;;0.00;0.00;;;16.60;99.90;;;;;;5082383;28;20057;-83
2022/09/20 14:11:27;;;;;;;0.00;0.00;;;16.80;99.90;;;;;;5084457;28;20045;-83
2022/09/20 14:13:55;;;;;;;0.00;0.00;;;16.90;99.90;;;;;;5051843;28;20083;-83